Meath Environmental Platform

Observations for Trim Market St

Time AQI Temp °C Hum % Pres Pa CO μg/m³ H₂S μg/m³ NO μg/m³ NO₂ μg/m³ O₃ μg/m³ SO₂ μg/m³ PM1 μg/m³ PM2.5 μg/m³ PM10 μg/m³
Thursday 13 August 2026
06:35 2 21.3 73 41,661 0 0 1.36 2.55 42.69 0 1.43 3.38 5.71
06:34 2 21.3 73 41,752 0 0 1.36 2.83 37.51 0 2.14 4.34 7.53
06:33 2 21.3 73 41,834 0 0 1.33 7.8 42.74 0 1.43 3.38 5.71
06:32 2 21.3 74 41,817 0 0 1.26 2.14 37.11 0 2.85 3.85 6.32
06:31 2 21.3 74 41,809 0.01 0 1.23 5.55 45.5 0 2.85 4.33 6.92
06:30 2 21.3 74 41,700 0 0 1.27 3.22 41.54 0 2.14 3.37 5.71
06:29 2 21.3 74 41,651 0 0 1.27 3.5 39.75 0 2.85 3.37 6.32
06:28 2 21.3 74 41,625 0.01 0 1.33 2.98 43.25 0 2.85 4.33 6.92
06:27 2 21.3 74 41,566 0 0 1.41 4.77 40.24 0 2.85 4.81 7.53
06:26 2 21.2 74 41,651 0.05 0 1.48 3.65 36.6 0 3.56 5.29 8.14
06:25 2 21.2 74 41,620 0.06 0 1.39 3.13 38.92 0 4.99 5.29 10.56
06:24 2 21.3 74 41,307 0.05 0 1.45 2.76 39.82 0 2.14 3.85 6.32
06:23 2 21.3 74 40,966 0.03 0 1.39 4.42 40.27 0 2.85 4.81 7.53
06:22 2 21.3 74 40,627 0 0 1.37 2.34 49.01 0 4.28 5.77 8.74
06:20 2 21.3 74 40,368 0 0 1.37 2.58 42.01 0 2.85 4.32 6.93
06:17 2 21.3 74 40,037 0 0 1.41 2.73 40.83 0 3.56 4.32 6.93
06:13 2 21.2 74 39,558 0 0 1.53 4.26 39.84 0 2.85 4.32 7.53
06:10 2 21.2 74 39,260 0 0 1.35 5.73 38.59 0 2.14 3.36 6.32
06:08 2 21.2 74 38,868 0 0 1.24 8.35 36.89 0 2.85 2.88 5.11
06:04 2 21.2 74 38,464 0 0 1.36 2.17 40.7 0 2.85 4.32 6.93